Time;durP1;ratioP1;P1;durP2;ratioP2;P2;SDS_P1;SDS_P2;PMS_P1;PMS_P2;Temp;Humidity;BMP_temperature;BMP_pressure;BME280_temperature;BME280_humidity;BME280_pressure;Samples;Min_cycle;Max_cycle;Signal;HPM_P1;HPM_P2
2023/04/18 00:00:06;;;;;;;14.90;12.98;;;7.90;99.90;;;;;;6267054;28;20519;-79
2023/04/18 00:03:09;;;;;;;15.00;11.65;;;7.90;99.90;;;;;;6267660;28;20049;-78
2023/04/18 00:06:12;;;;;;;14.80;13.18;;;7.90;99.90;;;;;;6269083;28;20045;-79
2023/04/18 00:09:14;;;;;;;15.85;13.95;;;7.90;99.90;;;;;;6268144;28;20083;-78
2023/04/18 00:12:16;;;;;;;16.15;12.65;;;7.90;99.90;;;;;;6265717;28;20064;-78
2023/04/18 00:15:18;;;;;;;21.17;13.50;;;7.90;99.90;;;;;;6264892;28;20052;-78
2023/04/18 00:18:21;;;;;;;18.83;14.75;;;7.90;99.90;;;;;;6267406;28;20068;-78
2023/04/18 00:21:24;;;;;;;17.58;13.02;;;7.80;99.90;;;;;;6267096;28;20055;-79
2023/04/18 00:24:26;;;;;;;18.30;13.07;;;7.80;99.90;;;;;;6265581;28;20044;-78
2023/04/18 00:27:27;;;;;;;18.00;14.35;;;7.80;99.90;;;;;;6266554;28;20045;-78
2023/04/18 00:30:29;;;;;;;15.65;13.32;;;7.70;99.90;;;;;;6266908;28;20057;-78
2023/04/18 00:33:33;;;;;;;17.65;12.75;;;7.70;99.90;;;;;;6263392;28;20495;-78
2023/04/18 00:36:35;;;;;;;16.00;12.98;;;7.70;99.90;;;;;;6265720;28;20048;-77
2023/04/18 00:39:37;;;;;;;22.58;13.63;;;7.70;99.90;;;;;;6266380;28;20423;-78
2023/04/18 00:42:38;;;;;;;15.75;13.10;;;7.60;99.90;;;;;;6268324;28;20057;-79
2023/04/18 00:45:40;;;;;;;17.05;15.00;;;7.60;99.90;;;;;;6268575;28;20052;-79
2023/04/18 00:48:43;;;;;;;17.50;14.02;;;7.50;99.90;;;;;;6264650;28;20052;-79
2023/04/18 00:51:46;;;;;;;17.48;12.93;;;7.50;99.90;;;;;;6264675;28;20044;-79
2023/04/18 00:54:48;;;;;;;20.27;13.82;;;7.40;99.90;;;;;;6265583;28;20045;-78
2023/04/18 00:57:50;;;;;;;16.20;13.93;;;7.40;99.90;;;;;;6267259;28;20056;-78
2023/04/18 01:00:52;;;;;;;16.27;14.07;;;7.40;99.90;;;;;;6266609;28;20470;-78
2023/04/18 01:03:55;;;;;;;21.10;15.85;;;7.40;99.90;;;;;;6265531;28;20076;-79
2023/04/18 01:06:57;;;;;;;17.98;14.05;;;7.40;99.90;;;;;;6266956;28;20056;-79
2023/04/18 01:09:59;;;;;;;19.25;15.30;;;7.40;99.90;;;;;;6266549;28;20052;-78
2023/04/18 01:13:11;;;;;;;17.25;14.05;;;7.40;99.90;;;;;;6264718;28;20046;-79
2023/04/18 01:16:13;;;;;;;19.83;15.43;;;7.40;99.90;;;;;;6267772;28;20049;-79
2023/04/18 01:19:16;;;;;;;17.08;14.15;;;7.40;99.90;;;;;;6268443;28;20045;-78
2023/04/18 01:22:20;;;;;;;17.17;14.35;;;7.40;99.90;;;;;;6264771;28;20128;-78
2023/04/18 01:25:23;;;;;;;16.27;14.52;;;7.40;99.90;;;;;;6266580;28;20044;-78
2023/04/18 01:28:26;;;;;;;19.90;14.57;;;7.50;99.90;;;;;;6265819;28;20052;-79
2023/04/18 01:31:28;;;;;;;15.95;14.25;;;7.60;99.90;;;;;;6264892;28;20167;-79
2023/04/18 01:34:29;;;;;;;19.15;13.65;;;7.70;99.90;;;;;;6262532;28;20060;-79
2023/04/18 01:37:31;;;;;;;14.60;11.98;;;7.70;99.90;;;;;;6267646;28;20515;-78
2023/04/18 01:40:34;;;;;;;16.70;14.23;;;7.80;99.90;;;;;;6263942;28;20057;-79
2023/04/18 01:43:36;;;;;;;17.33;15.23;;;7.90;99.90;;;;;;6262365;28;20049;-79
2023/04/18 01:46:38;;;;;;;17.77;12.82;;;8.00;99.90;;;;;;6265868;28;20049;-79
2023/04/18 01:49:41;;;;;;;16.00;14.32;;;8.00;99.90;;;;;;6265304;28;20060;-79
2023/04/18 01:52:43;;;;;;;18.50;14.10;;;8.10;99.90;;;;;;6266077;28;20049;-79
2023/04/18 01:55:48;;;;;;;25.70;14.70;;;8.10;99.90;;;;;;6264918;28;20055;-79
2023/04/18 01:58:50;;;;;;;15.02;12.32;;;8.20;99.90;;;;;;6265006;28;20488;-78
2023/04/18 02:01:52;;;;;;;15.43;13.35;;;8.20;99.90;;;;;;6263464;28;20049;-78
2023/04/18 02:04:54;;;;;;;18.73;14.18;;;8.20;99.90;;;;;;6261871;28;20049;-78
2023/04/18 02:07:56;;;;;;;18.63;14.48;;;8.30;99.90;;;;;;6263550;28;20158;-78
2023/04/18 02:11:00;;;;;;;15.68;12.95;;;8.30;99.90;;;;;;6264261;28;20134;-78
2023/04/18 02:14:01;;;;;;;17.67;13.50;;;8.30;99.90;;;;;;6264716;28;20921;-78
2023/04/18 02:17:03;;;;;;;17.08;13.98;;;8.30;99.90;;;;;;6262232;28;20076;-78
2023/04/18 02:20:07;;;;;;;17.30;13.15;;;8.30;99.90;;;;;;6262095;28;20041;-79
2023/04/18 02:23:08;;;;;;;19.35;12.82;;;8.40;99.90;;;;;;6264201;28;20044;-78
2023/04/18 02:26:11;;;;;;;15.90;13.38;;;8.40;99.90;;;;;;6262681;28;20045;-77
2023/04/18 02:29:13;;;;;;;17.75;13.82;;;8.40;99.90;;;;;;6265433;28;20057;-78
2023/04/18 02:32:15;;;;;;;17.20;13.95;;;8.40;99.90;;;;;;6261468;28;20044;-78
2023/04/18 02:35:16;;;;;;;21.10;14.25;;;8.40;99.90;;;;;;6257686;28;20053;-78
2023/04/18 02:38:18;;;;;;;16.90;14.38;;;8.50;99.90;;;;;;6263465;28;20037;-78
2023/04/18 02:41:21;;;;;;;18.05;14.13;;;8.50;99.90;;;;;;6264137;28;20048;-79
2023/04/18 02:44:23;;;;;;;19.35;13.40;;;8.50;99.90;;;;;;6261008;28;20060;-78
2023/04/18 02:47:24;;;;;;;20.20;13.13;;;8.50;99.90;;;;;;6263737;28;20057;-78
2023/04/18 02:50:27;;;;;;;17.58;14.13;;;8.50;99.90;;;;;;6262600;28;20420;-78
2023/04/18 02:53:29;;;;;;;19.13;13.70;;;8.60;99.90;;;;;;6262803;28;20132;-78
2023/04/18 02:56:38;;;;;;;18.23;13.70;;;8.60;99.90;;;;;;6262069;28;20051;-78
2023/04/18 02:59:40;;;;;;;18.73;13.30;;;8.60;99.90;;;;;;6261698;28;20122;-78
2023/04/18 03:02:42;;;;;;;19.98;14.00;;;8.60;99.90;;;;;;6262164;28;20053;-78
2023/04/18 03:05:43;;;;;;;16.00;13.10;;;8.60;99.90;;;;;;6265360;28;20049;-78
2023/04/18 03:08:45;;;;;;;18.23;13.98;;;8.60;99.90;;;;;;6261872;28;20056;-78
2023/04/18 03:11:48;;;;;;;18.70;13.48;;;8.60;99.90;;;;;;6256416;28;20049;-78
2023/04/18 03:14:50;;;;;;;16.63;13.85;;;8.60;99.90;;;;;;6258627;28;20048;-78
2023/04/18 03:17:51;;;;;;;16.85;13.82;;;8.60;99.90;;;;;;6261182;28;20055;-78
2023/04/18 03:20:53;;;;;;;18.10;13.32;;;8.60;99.90;;;;;;6260456;28;20045;-78
2023/04/18 03:23:55;;;;;;;19.15;13.20;;;8.60;99.90;;;;;;6257069;28;20065;-78
2023/04/18 03:26:59;;;;;;;18.80;13.75;;;8.60;99.90;;;;;;6261415;28;20048;-78
2023/04/18 03:30:01;;;;;;;15.85;12.85;;;8.60;99.90;;;;;;6260261;28;20131;-78
2023/04/18 03:33:04;;;;;;;16.90;13.82;;;8.60;99.90;;;;;;6260357;28;20049;-77
2023/04/18 03:36:06;;;;;;;21.98;13.73;;;8.60;99.90;;;;;;6261532;28;20105;-77
2023/04/18 03:39:08;;;;;;;15.27;13.63;;;8.60;99.90;;;;;;6265455;28;20049;-77
2023/04/18 03:42:11;;;;;;;17.15;12.80;;;8.60;99.90;;;;;;6266746;28;20439;-77
2023/04/18 03:45:12;;;;;;;17.92;13.20;;;8.60;99.90;;;;;;6265440;28;20100;-78
2023/04/18 03:48:14;;;;;;;14.52;11.60;;;8.60;99.90;;;;;;6264457;28;20049;-78
2023/04/18 03:51:16;;;;;;;14.23;11.75;;;8.60;99.90;;;;;;6265209;28;20399;-78
2023/04/18 03:54:18;;;;;;;13.20;11.82;;;8.60;99.90;;;;;;6265558;28;20053;-77
2023/04/18 03:57:21;;;;;;;18.85;11.85;;;8.60;99.90;;;;;;6263454;28;20511;-77
2023/04/18 04:00:23;;;;;;;16.70;12.63;;;8.60;99.90;;;;;;6262874;28;20233;-78
2023/04/18 04:03:26;;;;;;;15.75;14.10;;;8.60;99.90;;;;;;6264807;28;20064;-78
2023/04/18 04:06:28;;;;;;;19.25;14.02;;;8.60;99.90;;;;;;6266015;28;20051;-78
2023/04/18 04:09:29;;;;;;;16.75;11.90;;;8.60;99.90;;;;;;6264115;28;20060;-78
2023/04/18 04:12:32;;;;;;;16.23;11.43;;;8.60;99.90;;;;;;6266689;28;20045;-78
2023/04/18 04:15:36;;;;;;;16.50;11.43;;;8.60;99.90;;;;;;6265407;28;20067;-78
2023/04/18 04:18:37;;;;;;;17.65;14.13;;;8.60;99.90;;;;;;6269065;28;20052;-79
2023/04/18 04:21:39;;;;;;;13.02;11.60;;;8.60;99.90;;;;;;6266316;28;20064;-79
2023/04/18 04:24:41;;;;;;;16.27;11.63;;;8.60;99.90;;;;;;6263793;28;20045;-78
2023/04/18 04:27:44;;;;;;;16.27;13.10;;;8.60;99.90;;;;;;6262947;28;20052;-79
2023/04/18 04:30:46;;;;;;;17.90;12.60;;;8.50;99.90;;;;;;6263864;28;20045;-79
2023/04/18 04:33:48;;;;;;;15.05;11.85;;;8.60;99.90;;;;;;6264598;28;20122;-78
2023/04/18 04:36:50;;;;;;;15.25;12.05;;;8.50;99.90;;;;;;6260374;28;20033;-79
2023/04/18 04:39:52;;;;;;;17.63;12.68;;;8.50;99.90;;;;;;6264459;28;20396;-79
2023/04/18 04:42:55;;;;;;;15.27;12.55;;;8.50;99.90;;;;;;6266391;28;20048;-79
2023/04/18 04:45:57;;;;;;;20.27;12.18;;;8.50;99.90;;;;;;6263129;28;20049;-79
2023/04/18 04:48:58;;;;;;;14.23;11.35;;;8.50;99.90;;;;;;6262897;22;20048;-81
2023/04/18 04:52:01;;;;;;;18.58;12.25;;;8.50;99.90;;;;;;6244970;28;20068;-82
2023/04/18 04:55:03;;;;;;;21.65;13.80;;;8.40;99.90;;;;;;6246888;28;20077;-79
2023/04/18 04:58:06;;;;;;;17.60;12.27;;;8.40;99.90;;;;;;6238597;28;20381;-80
2023/04/18 05:01:08;;;;;;;18.52;9.80;;;8.40;99.90;;;;;;6240196;28;20414;-80
2023/04/18 05:04:09;;;;;;;14.85;11.70;;;8.40;99.90;;;;;;6238886;28;20049;-81
2023/04/18 05:07:11;;;;;;;16.13;12.23;;;8.40;99.90;;;;;;6238939;28;20044;-80
2023/04/18 05:10:13;;;;;;;19.15;12.65;;;8.40;99.90;;;;;;6243710;28;20068;-80
2023/04/18 05:13:16;;;;;;;14.50;12.52;;;8.30;99.90;;;;;;6239586;28;20041;-80
2023/04/18 05:16:17;;;;;;;17.48;13.55;;;8.30;99.90;;;;;;6244408;28;20053;-82
2023/04/18 05:19:19;;;;;;;14.65;11.20;;;8.30;99.90;;;;;;6243767;28;20399;-83
2023/04/18 05:22:21;;;;;;;27.48;13.23;;;8.40;99.90;;;;;;6243487;28;20099;-82
2023/04/18 05:25:23;;;;;;;17.60;11.52;;;8.40;99.90;;;;;;6243545;28;20056;-82
2023/04/18 05:28:26;;;;;;;16.40;10.75;;;8.30;99.90;;;;;;6244103;28;20053;-83
2023/04/18 05:31:28;;;;;;;20.30;11.73;;;8.40;99.90;;;;;;6239918;28;20049;-82
2023/04/18 05:34:30;;;;;;;16.45;11.07;;;8.40;99.90;;;;;;6241481;28;20089;-80
2023/04/18 05:37:32;;;;;;;13.43;10.88;;;8.50;99.90;;;;;;6239476;28;20045;-82
2023/04/18 05:40:35;;;;;;;15.43;10.70;;;8.50;99.90;;;;;;6250161;28;20049;-80
2023/04/18 05:43:37;;;;;;;14.95;12.30;;;8.50;99.90;;;;;;6246074;28;20052;-82
2023/04/18 05:46:39;;;;;;;16.20;11.10;;;8.60;99.90;;;;;;6242297;28;20049;-80
2023/04/18 05:49:41;;;;;;;14.13;10.10;;;8.60;99.90;;;;;;6240837;28;20045;-83
2023/04/18 05:52:43;;;;;;;17.75;11.70;;;8.60;99.90;;;;;;6240034;28;20136;-79
2023/04/18 05:55:45;;;;;;;13.60;10.38;;;8.70;99.90;;;;;;6242085;28;20060;-82
2023/04/18 05:58:50;;;;;;;13.50;10.63;;;8.70;99.90;;;;;;6240316;28;20045;-81
2023/04/18 06:01:51;;;;;;;18.88;12.35;;;8.70;99.90;;;;;;6240636;28;20499;-83
2023/04/18 06:04:53;;;;;;;16.40;12.27;;;8.60;99.90;;;;;;6239569;28;20109;-82
2023/04/18 06:07:55;;;;;;;17.90;12.68;;;8.60;99.90;;;;;;6240796;28;20037;-81
2023/04/18 06:10:56;;;;;;;15.02;10.50;;;8.60;99.90;;;;;;6238453;28;20049;-81
2023/04/18 06:13:59;;;;;;;16.35;11.85;;;8.60;99.90;;;;;;6240192;28;20140;-82
2023/04/18 06:17:01;;;;;;;15.25;9.93;;;8.60;99.90;;;;;;6245093;28;20037;-82
2023/04/18 06:20:05;;;;;;;16.63;11.23;;;8.70;99.90;;;;;;6238726;28;20068;-82
2023/04/18 06:23:07;;;;;;;15.82;11.40;;;8.70;99.90;;;;;;6238793;28;20046;-82
2023/04/18 06:26:09;;;;;;;17.08;12.70;;;8.80;99.90;;;;;;6239245;28;20966;-80
2023/04/18 06:29:12;;;;;;;14.32;12.38;;;8.90;99.90;;;;;;6240455;28;20459;-82
2023/04/18 06:32:13;;;;;;;23.80;12.20;;;8.90;99.90;;;;;;6238692;28;20041;-81
2023/04/18 06:35:15;;;;;;;13.65;10.80;;;8.90;99.90;;;;;;6238766;28;20051;-79
2023/04/18 06:38:17;;;;;;;12.88;9.50;;;9.00;99.90;;;;;;6235497;28;20041;-82
2023/04/18 06:41:19;;;;;;;18.45;12.90;;;9.10;99.90;;;;;;6238499;28;20056;-82
2023/04/18 06:44:22;;;;;;;15.82;11.98;;;9.10;99.90;;;;;;6236176;28;20045;-83
2023/04/18 06:47:23;;;;;;;14.95;11.10;;;9.20;99.90;;;;;;6237375;28;20041;-81
2023/04/18 06:50:25;;;;;;;15.23;11.88;;;9.20;99.90;;;;;;6234535;28;20049;-81
2023/04/18 06:53:27;;;;;;;12.43;10.82;;;9.10;99.90;;;;;;6237023;28;20049;-82
2023/04/18 06:56:29;;;;;;;13.38;11.20;;;9.10;99.90;;;;;;6238968;28;20057;-80
2023/04/18 06:59:32;;;;;;;16.58;11.60;;;9.20;99.90;;;;;;6239620;28;20486;-80
2023/04/18 07:02:35;;;;;;;15.57;11.95;;;9.20;99.90;;;;;;6238215;28;20052;-80
2023/04/18 07:05:37;;;;;;;16.13;10.98;;;9.20;99.90;;;;;;6237548;28;20060;-82
2023/04/18 07:08:39;;;;;;;16.08;10.73;;;9.30;99.90;;;;;;6235421;28;20045;-79
2023/04/18 07:11:40;;;;;;;15.57;12.18;;;9.30;99.90;;;;;;6236294;28;20060;-82
2023/04/18 07:14:43;;;;;;;14.52;11.25;;;9.30;99.90;;;;;;6239373;28;20050;-79
2023/04/18 07:17:45;;;;;;;12.40;8.75;;;9.50;99.90;;;;;;6233964;28;20488;-80
2023/04/18 07:20:47;;;;;;;19.27;12.23;;;9.60;99.90;;;;;;6236085;28;20053;-82
2023/04/18 07:23:48;;;;;;;16.90;10.32;;;9.80;99.90;;;;;;6236875;28;20049;-82
2023/04/18 07:26:50;;;;;;;18.02;12.07;;;10.00;99.90;;;;;;6238781;28;20038;-79
2023/04/18 07:29:53;;;;;;;17.05;11.30;;;10.20;99.90;;;;;;6238638;28;20058;-79
2023/04/18 07:32:55;;;;;;;16.30;11.73;;;10.20;99.90;;;;;;6239161;28;20069;-82
2023/04/18 07:35:57;;;;;;;13.63;11.13;;;10.10;99.90;;;;;;6235446;28;20060;-82
2023/04/18 07:38:58;;;;;;;15.27;11.65;;;10.20;99.90;;;;;;6233614;28;20042;-80
2023/04/18 07:42:01;;;;;;;16.30;11.85;;;10.20;99.90;;;;;;6215124;28;20049;-80
2023/04/18 07:45:05;;;;;;;17.55;11.85;;;10.20;99.90;;;;;;6211172;28;20065;-79
2023/04/18 07:48:07;;;;;;;19.10;11.77;;;10.20;99.90;;;;;;6216307;28;20053;-80
2023/04/18 07:51:08;;;;;;;16.67;12.07;;;10.20;99.90;;;;;;6218629;28;20061;-82
2023/04/18 07:54:10;;;;;;;13.85;10.95;;;10.20;99.90;;;;;;6215491;28;20080;-81
2023/04/18 07:57:12;;;;;;;18.92;11.60;;;10.30;99.90;;;;;;6215786;28;20586;-79
2023/04/18 08:00:16;;;;;;;16.15;12.10;;;10.40;99.90;;;;;;6218641;28;20457;-78
2023/04/18 08:03:18;;;;;;;15.02;11.43;;;10.60;99.90;;;;;;6218224;28;20050;-79
2023/04/18 08:06:20;;;;;;;15.65;12.68;;;10.90;99.90;;;;;;6224458;28;20050;-81
2023/04/18 08:09:21;;;;;;;16.45;12.02;;;11.00;99.90;;;;;;6218558;28;20049;-83
2023/04/18 08:12:23;;;;;;;14.10;10.75;;;11.00;99.90;;;;;;6220177;28;20072;-80
2023/04/18 08:15:27;;;;;;;19.98;13.25;;;11.00;99.90;;;;;;6218193;28;20044;-77
2023/04/18 08:18:29;;;;;;;15.70;11.98;;;11.00;99.90;;;;;;6214359;28;20049;-79
2023/04/18 08:21:31;;;;;;;17.88;12.55;;;11.00;99.90;;;;;;6217776;28;20573;-80
2023/04/18 08:24:33;;;;;;;17.35;12.73;;;10.90;99.90;;;;;;6220466;28;20050;-81
2023/04/18 08:27:35;;;;;;;16.15;11.10;;;10.90;99.90;;;;;;6219071;28;20117;-82
2023/04/18 08:30:38;;;;;;;17.75;11.90;;;10.80;99.90;;;;;;6218742;28;20132;-80
2023/04/18 08:33:39;;;;;;;17.83;13.98;;;10.80;99.90;;;;;;6219706;28;20061;-83
2023/04/18 08:36:41;;;;;;;17.50;13.02;;;10.70;99.90;;;;;;6222515;28;20061;-81
2023/04/18 08:39:43;;;;;;;16.75;12.13;;;10.70;99.90;;;;;;6217103;28;20056;-83
2023/04/18 08:42:45;;;;;;;17.88;10.52;;;10.70;99.90;;;;;;6215483;28;20037;-81
2023/04/18 08:45:48;;;;;;;20.00;12.98;;;10.70;99.90;;;;;;6221071;28;20054;-80
2023/04/18 08:48:51;;;;;;;19.05;14.35;;;10.70;99.90;;;;;;6218344;28;20050;-81
2023/04/18 08:51:53;;;;;;;17.30;12.65;;;10.80;99.90;;;;;;6225086;28;20061;-82
2023/04/18 08:54:55;;;;;;;15.23;12.30;;;10.70;99.90;;;;;;6223886;28;20054;-80
2023/04/18 08:57:58;;;;;;;15.52;12.20;;;10.70;99.90;;;;;;6220327;28;20049;-78
2023/04/18 09:01:01;;;;;;;15.85;12.40;;;10.70;99.90;;;;;;6220630;28;20054;-85
2023/04/18 09:04:04;;;;;;;17.77;13.57;;;10.80;99.90;;;;;;6219520;28;20104;-80
2023/04/18 09:07:08;;;;;;;18.70;12.77;;;10.80;99.90;;;;;;6222281;28;20132;-80
2023/04/18 09:10:11;;;;;;;16.48;12.23;;;11.00;99.90;;;;;;6222429;28;20492;-82
2023/04/18 09:13:13;;;;;;;15.27;11.77;;;11.10;99.90;;;;;;6227177;28;20058;-78
2023/04/18 09:16:18;;;;;;;19.38;12.65;;;11.10;99.90;;;;;;6225205;28;20140;-82
2023/04/18 09:19:20;;;;;;;16.88;12.63;;;11.20;99.90;;;;;;6224330;28;20054;-83
2023/04/18 09:22:22;;;;;;;16.60;12.38;;;11.30;99.90;;;;;;6229432;28;20046;-83
2023/04/18 09:25:26;;;;;;;19.75;13.70;;;11.50;99.90;;;;;;6222888;28;20121;-82
2023/04/18 09:28:32;;;;;;;19.13;16.50;;;11.60;99.90;;;;;;6221774;28;20038;-82
2023/04/18 09:31:37;;;;;;;17.50;12.63;;;11.70;99.90;;;;;;6220688;28;20057;-82
2023/04/18 09:34:42;;;;;;;22.42;14.93;;;11.80;99.90;;;;;;6221418;28;20050;-78
2023/04/18 09:37:50;;;;;;;25.48;15.50;;;11.90;99.90;;;;;;6221444;28;20057;-82
2023/04/18 09:41:07;;;;;;;19.52;13.93;;;11.90;99.90;;;;;;6216887;28;20200;-81
2023/04/18 09:44:11;;;;;;;22.33;16.83;;;11.90;99.90;;;;;;6221159;28;20160;-82
2023/04/18 09:47:14;;;;;;;17.00;13.38;;;11.90;99.90;;;;;;6215480;28;20065;-80
2023/04/18 09:50:17;;;;;;;17.67;14.25;;;11.90;99.90;;;;;;6221524;28;20061;-84
2023/04/18 09:53:19;;;;;;;15.10;11.88;;;11.90;99.90;;;;;;6220469;28;20056;-82
2023/04/18 09:56:25;;;;;;;19.20;12.07;;;11.90;99.90;;;;;;6218725;28;20050;-84
2023/04/18 09:59:39;;;;;;;15.68;12.32;;;12.00;99.90;;;;;;6217668;28;20057;-82
2023/04/18 10:02:48;;;;;;;15.50;12.55;;;12.00;99.90;;;;;;6217085;28;20119;-80
2023/04/18 10:05:50;;;;;;;22.75;14.32;;;12.10;99.90;;;;;;6218109;28;21522;-81
2023/04/18 10:08:53;;;;;;;17.70;13.68;;;12.00;99.90;;;;;;6219564;28;20041;-82
2023/04/18 10:11:56;;;;;;;14.73;10.60;;;12.10;99.90;;;;;;6220153;28;20200;-79
2023/04/18 10:14:58;;;;;;;17.23;11.45;;;12.20;99.90;;;;;;6219162;28;20120;-80
2023/04/18 10:18:03;;;;;;;16.05;12.85;;;12.20;99.90;;;;;;6218284;28;20042;-82
2023/04/18 10:21:05;;;;;;;17.42;13.43;;;12.20;99.90;;;;;;6219489;28;20056;-82
2023/04/18 10:24:07;;;;;;;21.60;12.70;;;12.20;99.90;;;;;;6215537;28;20052;-80
2023/04/18 10:27:09;;;;;;;18.40;12.13;;;12.20;99.90;;;;;;6220873;28;20057;-82
2023/04/18 10:30:12;;;;;;;14.77;11.80;;;12.20;99.90;;;;;;6217578;28;20052;-81
2023/04/18 10:33:31;;;;;;;16.67;11.15;;;12.40;99.90;;;;;;6222025;28;20188;-81
2023/04/18 10:36:33;;;;;;;13.35;11.77;;;12.70;99.90;;;;;;6218239;28;20407;-82
2023/04/18 10:39:56;;;;;;;13.25;10.57;;;13.00;99.90;;;;;;6217177;28;20050;-82
2023/04/18 10:42:59;;;;;;;16.58;11.38;;;13.40;99.90;;;;;;6215983;28;20037;-83
2023/04/18 10:46:10;;;;;;;11.98;10.75;;;13.80;99.90;;;;;;6224705;28;20057;-81
2023/04/18 10:49:18;;;;;;;14.05;12.02;;;14.20;99.90;;;;;;6246170;22;20061;-81
2023/04/18 10:52:20;;;;;;;13.70;12.27;;;14.50;99.90;;;;;;6223242;28;20054;-81
2023/04/18 10:55:28;;;;;;;13.13;11.02;;;14.60;99.90;;;;;;6219584;28;20052;-81
2023/04/18 10:58:31;;;;;;;15.43;10.77;;;14.90;99.90;;;;;;6222227;28;20519;-80
2023/04/18 11:01:36;;;;;;;13.70;10.13;;;15.00;99.90;;;;;;6220524;28;20099;-81
2023/04/18 11:04:41;;;;;;;13.07;11.65;;;15.10;99.90;;;;;;6226406;28;20045;-81
2023/04/18 11:07:45;;;;;;;14.63;11.85;;;15.10;99.90;;;;;;6225877;28;20061;-82
2023/04/18 11:10:57;;;;;;;14.73;11.90;;;15.10;99.90;;;;;;6227931;28;20053;-82
2023/04/18 11:13:59;;;;;;;11.65;10.02;;;15.10;99.90;;;;;;6227071;28;20045;-81
2023/04/18 11:17:15;;;;;;;14.65;11.38;;;15.00;99.90;;;;;;6227646;28;20042;-80
2023/04/18 11:20:18;;;;;;;14.27;11.40;;;14.90;99.90;;;;;;6230043;28;20046;-80
2023/04/18 11:23:23;;;;;;;14.05;11.70;;;14.90;99.90;;;;;;6227676;28;20037;-80
2023/04/18 11:26:25;;;;;;;12.07;10.75;;;15.00;99.90;;;;;;6225120;28;20049;-80
2023/04/18 11:29:27;;;;;;;13.40;11.95;;;14.90;99.90;;;;;;6224275;28;20415;-81
2023/04/18 11:32:29;;;;;;;12.52;10.55;;;14.80;99.90;;;;;;6228119;28;20431;-80
2023/04/18 11:35:37;;;;;;;14.55;12.30;;;14.90;99.90;;;;;;6226638;28;20076;-81
2023/04/18 11:38:40;;;;;;;12.45;10.70;;;14.90;99.90;;;;;;6225791;28;20057;-81
2023/04/18 11:41:48;;;;;;;13.05;11.07;;;14.90;99.90;;;;;;6228464;28;20535;-80
2023/04/18 11:44:49;;;;;;;14.52;10.80;;;15.10;99.90;;;;;;6226369;28;20057;-81
2023/04/18 11:47:56;;;;;;;15.60;11.23;;;15.30;99.90;;;;;;6227126;28;20046;-80
2023/04/18 11:50:59;;;;;;;12.30;10.13;;;15.50;99.90;;;;;;6227633;28;20165;-81
2023/04/18 11:54:01;;;;;;;13.45;10.93;;;15.50;99.90;;;;;;6224565;28;20415;-80
2023/04/18 11:57:03;;;;;;;11.00;9.90;;;15.60;99.90;;;;;;6229398;28;20088;-80
2023/04/18 12:00:07;;;;;;;13.90;10.32;;;15.60;99.90;;;;;;6204468;28;20562;-80
2023/04/18 12:03:15;;;;;;;14.30;11.70;;;15.60;99.90;;;;;;6196050;28;20066;-80
2023/04/18 12:06:18;;;;;;;;;;;15.70;99.90;;;;;;6195823;28;20658;-80
2023/04/18 12:09:23;;;;;;;13.65;10.00;;;15.50;99.80;;;;;;6220538;28;19922;-80
2023/04/18 12:12:25;;;;;;;12.13;10.05;;;15.30;99.70;;;;;;6227879;28;20060;-82
2023/04/18 12:15:28;;;;;;;14.50;10.00;;;15.10;99.90;;;;;;6231387;28;20045;-81
2023/04/18 12:18:30;;;;;;;11.35;9.15;;;14.90;99.90;;;;;;6232353;28;20564;-81
2023/04/18 12:21:33;;;;;;;12.55;9.82;;;14.80;99.90;;;;;;6231529;28;20053;-81
2023/04/18 12:24:36;;;;;;;11.50;8.65;;;14.80;99.90;;;;;;6232711;28;20057;-79
2023/04/18 12:27:52;;;;;;;10.77;9.10;;;15.10;99.90;;;;;;6234922;28;20048;-81
2023/04/18 12:30:53;;;;;;;11.45;9.50;;;15.40;99.90;;;;;;6227139;28;20060;-81
2023/04/18 12:33:58;;;;;;;12.40;10.90;;;15.60;99.90;;;;;;6227948;28;20041;-81
2023/04/18 12:37:03;;;;;;;9.75;8.75;;;15.70;99.90;;;;;;6228092;28;20054;-79
2023/04/18 12:40:07;;;;;;;13.75;9.55;;;16.00;99.80;;;;;;6232832;28;20049;-80
2023/04/18 12:43:10;;;;;;;11.38;10.05;;;16.30;99.20;;;;;;6228956;28;20129;-80
2023/04/18 12:46:11;;;;;;;12.32;9.98;;;16.60;99.20;;;;;;6232426;28;20059;-80
2023/04/18 12:49:13;;;;;;;10.73;9.45;;;16.90;98.80;;;;;;6192863;28;20519;-80
2023/04/18 12:52:16;;;;;;;14.00;10.82;;;17.10;98.20;;;;;;6193588;28;20054;-81
2023/04/18 12:55:18;;;;;;;17.65;10.45;;;17.10;97.80;;;;;;6206593;28;20038;-81
2023/04/18 12:58:19;;;;;;;11.88;9.77;;;16.90;97.60;;;;;;6225720;28;20052;-81
2023/04/18 13:01:21;;;;;;;9.93;8.95;;;16.80;97.90;;;;;;6204003;28;20058;-80
2023/04/18 13:04:23;;;;;;;11.73;7.32;;;16.70;97.30;;;;;;6205784;28;20053;-80
2023/04/18 13:07:26;;;;;;;12.23;8.68;;;16.60;97.10;;;;;;6215915;28;20054;-80
2023/04/18 13:10:27;;;;;;;10.38;8.85;;;16.40;96.90;;;;;;6230062;28;20056;-82
2023/04/18 13:13:29;;;;;;;13.75;10.23;;;16.20;97.20;;;;;;6211073;28;20050;-80
2023/04/18 13:16:31;;;;;;;10.32;8.60;;;16.20;97.40;;;;;;6206707;28;20038;-79
2023/04/18 13:19:33;;;;;;;12.55;8.88;;;16.20;97.50;;;;;;6208455;28;20050;-79
2023/04/18 13:22:36;;;;;;;9.27;7.60;;;16.60;97.70;;;;;;6204215;28;20060;-79
2023/04/18 13:25:38;;;;;;;10.65;9.15;;;17.10;96.90;;;;;;6198672;28;20061;-80
2023/04/18 13:28:40;;;;;;;9.65;7.68;;;17.50;96.50;;;;;;6205170;28;20054;-80
2023/04/18 13:31:42;;;;;;;7.88;7.18;;;17.80;96.20;;;;;;6201991;28;20487;-80
2023/04/18 13:34:45;;;;;;;7.80;7.00;;;18.00;95.40;;;;;;6200051;28;20408;-80
2023/04/18 13:37:48;;;;;;;9.82;7.20;;;18.20;94.80;;;;;;6202828;28;20048;-80
2023/04/18 13:40:50;;;;;;;8.45;6.85;;;18.30;94.50;;;;;;6197799;28;20050;-80
2023/04/18 13:43:51;;;;;;;7.65;5.82;;;18.40;94.30;;;;;;6220074;28;20060;-79
2023/04/18 13:46:53;;;;;;;7.53;5.70;;;18.50;94.50;;;;;;6217064;28;20050;-80
2023/04/18 13:49:55;;;;;;;6.97;6.22;;;18.70;93.40;;;;;;6198573;28;20051;-80
2023/04/18 13:52:58;;;;;;;7.85;6.18;;;18.70;92.90;;;;;;6226727;28;20081;-80
2023/04/18 13:56:00;;;;;;;7.10;6.32;;;18.60;92.70;;;;;;6229701;28;20038;-78
2023/04/18 13:59:02;;;;;;;7.25;5.78;;;18.60;92.40;;;;;;6220840;28;20039;-80
2023/04/18 14:02:04;;;;;;;7.18;6.50;;;18.70;92.10;;;;;;6208506;28;20041;-80
2023/04/18 14:05:07;;;;;;;7.93;6.35;;;18.90;92.00;;;;;;6206021;28;20056;-79
2023/04/18 14:08:10;;;;;;;7.28;6.57;;;18.70;91.50;;;;;;6211131;28;20057;-80
2023/04/18 14:11:11;;;;;;;7.50;6.43;;;18.60;91.70;;;;;;6211991;28;20046;-80
2023/04/18 14:14:13;;;;;;;7.63;6.82;;;18.50;91.90;;;;;;6229905;28;20055;-78
2023/04/18 14:17:15;;;;;;;6.70;5.30;;;18.70;91.80;;;;;;6198019;28;20070;-78
2023/04/18 14:20:18;;;;;;;9.07;5.43;;;18.70;91.50;;;;;;6211505;28;20046;-80
2023/04/18 14:23:27;;;;;;;6.55;5.47;;;18.70;91.50;;;;;;6223625;28;20059;-79
2023/04/18 14:26:39;;;;;;;6.00;5.40;;;18.70;90.90;;;;;;6226386;28;20483;-78
2023/04/18 14:29:44;;;;;;;4.82;4.43;;;18.50;91.30;;;;;;6230872;28;20539;-80
2023/04/18 14:32:46;;;;;;;6.53;5.50;;;18.50;91.40;;;;;;6225914;28;20057;-80
2023/04/18 14:35:52;;;;;;;9.23;4.97;;;18.40;91.10;;;;;;6225393;28;20404;-79
2023/04/18 14:38:57;;;;;;;7.22;4.88;;;18.20;91.50;;;;;;6216858;28;20051;-80
2023/04/18 14:42:00;;;;;;;7.50;5.10;;;18.00;91.40;;;;;;6194842;28;20496;-78
2023/04/18 14:45:07;;;;;;;5.60;5.10;;;17.60;91.40;;;;;;6220032;28;20060;-79
2023/04/18 14:48:10;;;;;;;8.07;5.57;;;17.20;91.70;;;;;;6224482;28;20539;-83
2023/04/18 14:51:17;;;;;;;8.65;5.63;;;16.90;92.30;;;;;;6214904;28;20776;-80
2023/04/18 14:54:25;;;;;;;5.70;4.97;;;16.80;92.60;;;;;;6195221;28;20116;-80
2023/04/18 14:57:45;;;;;;;7.07;6.25;;;16.60;92.80;;;;;;6203876;28;20054;-81
2023/04/18 15:00:51;;;;;;;5.50;5.00;;;16.60;93.10;;;;;;6182113;28;20556;-80
2023/04/18 15:03:54;;;;;;;6.90;5.85;;;16.90;93.20;;;;;;6204738;28;20390;-81
2023/04/18 15:07:43;;;;;;;6.57;5.50;;;17.20;93.20;;;;;;6218814;28;20048;-82
2023/04/18 15:10:54;;;;;;;6.63;6.03;;;17.50;93.00;;;;;;6229248;28;20099;-81
2023/04/18 15:14:06;;;;;;;7.60;5.45;;;17.70;92.50;;;;;;6230907;28;20052;-81
2023/04/18 15:17:12;;;;;;;11.77;5.75;;;17.50;92.00;;;;;;6201867;28;20112;-80
2023/04/18 15:20:17;;;;;;;5.53;4.85;;;17.40;92.00;;;;;;6202965;28;20046;-81
2023/04/18 15:23:25;;;;;;;6.32;5.57;;;17.20;91.90;;;;;;6201786;28;20556;-81
2023/04/18 15:26:36;;;;;;;6.80;5.90;;;17.10;91.90;;;;;;6200228;28;20058;-80
2023/04/18 15:29:46;;;;;;;6.63;6.00;;;17.10;92.00;;;;;;6206713;28;20057;-81
2023/04/18 15:32:53;;;;;;;7.82;7.18;;;17.20;92.40;;;;;;6210635;28;20045;-81
2023/04/18 15:35:58;;;;;;;9.68;8.77;;;17.30;92.40;;;;;;6218841;28;20147;-82
2023/04/18 15:39:00;;;;;;;6.55;5.60;;;17.20;91.80;;;;;;6221370;28;20628;-80